Time;durP1;ratioP1;P1;durP2;ratioP2;P2;SDS_P1;SDS_P2;PMS_P1;PMS_P2;Temp;Humidity;BMP_temperature;BMP_pressure;BME280_temperature;BME280_humidity;BME280_pressure;Samples;Min_cycle;Max_cycle;Signal;HPM_P1;HPM_P2
2023/11/11 00:00:12;;;;;;;25.43;22.87;;;8.80;99.90;;;;;;5075972;28;20514;-71
2023/11/11 00:02:40;;;;;;;24.90;22.53;;;8.80;99.90;;;;;;5076091;28;20472;-71
2023/11/11 00:05:10;;;;;;;24.43;22.10;;;8.80;99.90;;;;;;5075912;28;20465;-71
2023/11/11 00:07:38;;;;;;;25.90;23.50;;;8.80;99.90;;;;;;5076145;28;20433;-71
2023/11/11 00:10:09;;;;;;;27.83;24.83;;;8.80;99.90;;;;;;5075806;28;20460;-71
2023/11/11 00:12:38;;;;;;;25.83;23.33;;;8.80;99.90;;;;;;5076204;28;20802;-71
2023/11/11 00:15:08;;;;;;;24.40;22.00;;;8.80;99.90;;;;;;5076310;28;20486;-71
2023/11/11 00:17:36;;;;;;;27.13;24.33;;;8.80;99.90;;;;;;5075731;28;20460;-71
2023/11/11 00:20:12;;;;;;;26.30;23.50;;;8.80;99.90;;;;;;5075606;28;20982;-71
2023/11/11 00:22:43;;;;;;;28.33;25.30;;;8.80;99.90;;;;;;5076169;28;20420;-71
2023/11/11 00:25:12;;;;;;;25.90;23.30;;;8.80;99.90;;;;;;5075504;28;20453;-71
2023/11/11 00:27:41;;;;;;;27.60;24.67;;;8.80;99.90;;;;;;5076078;28;20471;-71
2023/11/11 00:30:13;;;;;;;27.37;24.67;;;8.80;99.90;;;;;;5074110;28;20487;-71
2023/11/11 00:32:44;;;;;;;27.50;24.80;;;8.80;99.90;;;;;;5074192;28;20946;-71
2023/11/11 00:35:13;;;;;;;27.77;24.90;;;8.80;99.90;;;;;;5074179;28;20793;-71
2023/11/11 00:37:45;;;;;;;26.40;23.67;;;8.80;99.90;;;;;;5074061;28;20444;-71
2023/11/11 00:40:13;;;;;;;27.50;24.90;;;8.70;99.90;;;;;;5075415;28;20457;-71
2023/11/11 00:42:42;;;;;;;24.97;22.50;;;8.70;99.90;;;;;;5075618;28;20839;-71
2023/11/11 00:45:10;;;;;;;26.60;24.00;;;8.70;99.90;;;;;;5073834;28;20465;-71
2023/11/11 00:47:39;;;;;;;25.97;23.20;;;8.70;99.90;;;;;;5073976;28;20532;-71
2023/11/11 00:50:09;;;;;;;28.27;24.97;;;8.70;99.90;;;;;;5073789;28;20465;-71
2023/11/11 00:52:37;;;;;;;27.33;24.63;;;8.70;99.90;;;;;;5074960;28;20441;-71
2023/11/11 00:55:09;;;;;;;28.63;25.63;;;8.70;99.90;;;;;;5073718;28;20953;-71
2023/11/11 00:57:38;;;;;;;26.50;23.97;;;8.70;99.90;;;;;;5073750;28;20475;-71
2023/11/11 01:00:10;;;;;;;28.03;25.20;;;8.70;99.90;;;;;;5073668;28;20594;-71
2023/11/11 01:02:40;;;;;;;27.27;24.37;;;8.70;99.90;;;;;;5074908;28;20433;-71
2023/11/11 01:05:09;;;;;;;29.47;26.57;;;8.70;99.90;;;;;;5074814;28;20491;-71
2023/11/11 01:07:37;;;;;;;28.90;26.07;;;8.70;99.90;;;;;;5073531;28;20441;-71
2023/11/11 01:10:08;;;;;;;27.53;24.83;;;8.70;99.90;;;;;;5073372;28;20472;-71
2023/11/11 01:12:37;;;;;;;30.47;27.20;;;8.70;99.90;;;;;;5075031;28;20898;-71
2023/11/11 01:15:08;;;;;;;27.67;24.87;;;8.70;99.90;;;;;;5074682;28;20444;-71
2023/11/11 01:17:36;;;;;;;28.90;25.90;;;8.70;99.90;;;;;;5073342;28;20442;-71
2023/11/11 01:20:06;;;;;;;27.63;24.93;;;8.70;99.90;;;;;;5073728;28;20813;-71
2023/11/11 01:22:34;;;;;;;26.67;24.17;;;8.70;99.90;;;;;;5073197;28;20500;-71
2023/11/11 01:25:03;;;;;;;28.63;25.83;;;8.70;99.90;;;;;;5073085;28;20465;-71
2023/11/11 01:27:32;;;;;;;30.33;27.23;;;8.70;99.90;;;;;;5077600;28;20559;-71
2023/11/11 01:30:01;;;;;;;28.13;24.80;;;8.70;99.90;;;;;;5075425;28;20479;-71
2023/11/11 01:32:29;;;;;;;27.43;24.83;;;8.70;99.90;;;;;;5076419;28;20449;-71
2023/11/11 01:35:00;;;;;;;28.10;25.47;;;8.70;99.90;;;;;;5076583;28;20410;-71
2023/11/11 01:37:29;;;;;;;27.57;24.77;;;8.70;99.90;;;;;;5075670;28;20444;-71
2023/11/11 01:39:57;;;;;;;28.17;25.27;;;8.70;99.90;;;;;;5075479;28;20488;-71
2023/11/11 01:42:25;;;;;;;28.13;25.43;;;8.70;99.90;;;;;;5075029;28;20433;-71
2023/11/11 01:44:55;;;;;;;29.57;26.67;;;8.70;99.90;;;;;;5075913;28;20487;-71
2023/11/11 01:47:23;;;;;;;26.97;24.37;;;8.70;99.90;;;;;;5074297;28;20900;-71
2023/11/11 01:49:52;;;;;;;28.10;25.37;;;8.70;99.90;;;;;;5073229;28;20881;-71
2023/11/11 01:52:20;;;;;;;28.17;25.37;;;8.70;99.90;;;;;;5072947;28;20811;-71
2023/11/11 01:54:49;;;;;;;27.67;24.87;;;8.70;99.90;;;;;;5072943;28;20443;-71
2023/11/11 01:57:17;;;;;;;27.63;24.83;;;8.70;99.90;;;;;;5074115;28;20429;-71
2023/11/11 01:59:46;;;;;;;28.77;25.80;;;8.70;99.90;;;;;;5072753;28;20476;-71
2023/11/11 02:02:16;;;;;;;28.83;25.73;;;8.70;99.90;;;;;;5072738;28;20441;-71
2023/11/11 02:04:44;;;;;;;28.03;25.40;;;8.70;99.90;;;;;;5073632;28;20517;-71
2023/11/11 02:07:13;;;;;;;31.40;28.10;;;8.70;99.90;;;;;;5073931;28;20441;-71
2023/11/11 02:09:42;;;;;;;27.73;25.03;;;8.70;99.90;;;;;;5072436;28;20461;-71
2023/11/11 02:12:11;;;;;;;29.03;25.20;;;8.70;99.90;;;;;;5072442;28;20445;-71
2023/11/11 02:14:39;;;;;;;29.13;26.03;;;8.70;99.90;;;;;;5072342;28;20490;-71
2023/11/11 02:17:07;;;;;;;26.50;23.80;;;8.70;99.90;;;;;;5072306;28;20449;-71
2023/11/11 02:19:36;;;;;;;28.97;25.87;;;8.70;99.90;;;;;;5073738;28;20600;-71
2023/11/11 02:22:04;;;;;;;27.50;24.43;;;8.70;99.90;;;;;;5073829;28;20868;-71
2023/11/11 02:24:34;;;;;;;29.00;25.37;;;8.70;99.90;;;;;;5072167;28;20448;-71
2023/11/11 02:27:03;;;;;;;27.20;24.50;;;8.70;99.90;;;;;;5072230;28;20528;-71
2023/11/11 02:29:31;;;;;;;29.57;26.60;;;8.70;99.90;;;;;;5071927;28;20468;-72
2023/11/11 02:31:59;;;;;;;30.07;26.80;;;8.70;99.90;;;;;;5072209;28;20513;-71
2023/11/11 02:34:27;;;;;;;30.23;27.20;;;8.70;99.90;;;;;;5072217;28;20517;-71
2023/11/11 02:36:55;;;;;;;27.33;24.63;;;8.70;99.90;;;;;;5073608;28;20437;-71
2023/11/11 02:39:30;;;;;;;28.97;25.87;;;8.70;99.90;;;;;;5073558;28;20945;-71
2023/11/11 02:42:00;;;;;;;31.03;27.77;;;8.70;99.90;;;;;;5072001;28;20824;-71
2023/11/11 02:44:28;;;;;;;29.53;26.50;;;8.70;99.90;;;;;;5072107;28;20864;-71
2023/11/11 02:46:56;;;;;;;29.70;26.60;;;8.70;99.90;;;;;;5071998;28;20507;-71
2023/11/11 02:49:25;;;;;;;29.50;26.40;;;8.70;99.90;;;;;;5071937;28;20583;-71
2023/11/11 02:51:54;;;;;;;29.13;26.17;;;8.70;99.90;;;;;;5071992;28;20449;-71
2023/11/11 02:54:22;;;;;;;32.63;28.80;;;8.70;99.90;;;;;;5073523;28;20868;-71
2023/11/11 02:56:50;;;;;;;31.93;28.63;;;8.70;99.90;;;;;;5071884;28;20441;-71
2023/11/11 02:59:19;;;;;;;31.63;28.23;;;8.70;99.90;;;;;;5071768;28;20444;-71
2023/11/11 03:01:47;;;;;;;31.43;28.07;;;8.70;99.90;;;;;;5071931;28;20935;-71
2023/11/11 03:04:16;;;;;;;31.23;27.70;;;8.70;99.90;;;;;;5073518;28;20448;-69
2023/11/11 03:06:46;;;;;;;29.20;26.10;;;8.70;99.90;;;;;;5071771;28;20469;-70
2023/11/11 03:09:15;;;;;;;29.43;26.33;;;8.60;99.90;;;;;;5073243;28;20435;-70
2023/11/11 03:11:43;;;;;;;32.87;27.23;;;8.60;99.90;;;;;;5073463;28;20484;-70
2023/11/11 03:14:11;;;;;;;31.27;27.80;;;8.60;99.90;;;;;;5071725;28;20853;-70
2023/11/11 03:16:41;;;;;;;31.90;28.10;;;8.60;99.90;;;;;;5074009;28;20479;-70
2023/11/11 03:19:09;;;;;;;33.13;27.53;;;8.70;99.90;;;;;;5076851;28;20534;-70
2023/11/11 03:21:38;;;;;;;31.10;27.47;;;8.60;99.90;;;;;;5075569;28;20459;-70
2023/11/11 03:24:08;;;;;;;30.13;26.93;;;8.60;99.90;;;;;;5077116;28;20448;-70
2023/11/11 03:26:36;;;;;;;33.13;27.37;;;8.60;99.90;;;;;;5076718;28;20461;-70
2023/11/11 03:29:04;;;;;;;33.13;27.40;;;8.60;99.90;;;;;;5076681;28;20926;-70
2023/11/11 03:31:32;;;;;;;29.40;26.20;;;8.60;99.90;;;;;;5075417;28;20449;-70
2023/11/11 03:34:01;;;;;;;31.30;27.50;;;8.60;99.90;;;;;;5075437;28;20530;-70
2023/11/11 03:36:29;;;;;;;28.20;25.20;;;8.60;99.90;;;;;;5076812;28;20455;-70
2023/11/11 03:38:57;;;;;;;30.63;27.33;;;8.60;99.90;;;;;;5076502;28;20456;-70
2023/11/11 03:41:26;;;;;;;28.60;25.57;;;8.60;99.90;;;;;;5075123;28;20530;-70
2023/11/11 03:43:54;;;;;;;30.93;27.60;;;8.60;99.90;;;;;;5075136;28;20540;-70
2023/11/11 03:46:23;;;;;;;28.70;25.60;;;8.60;99.90;;;;;;5076297;28;20498;-70
2023/11/11 03:48:51;;;;;;;29.43;26.23;;;8.60;99.90;;;;;;5076399;28;20444;-70
2023/11/11 03:51:20;;;;;;;31.33;26.57;;;8.60;99.90;;;;;;5076237;28;20800;-70
2023/11/11 03:53:48;;;;;;;31.13;27.67;;;8.60;99.90;;;;;;5075001;28;20448;-70
2023/11/11 03:56:19;;;;;;;33.13;29.10;;;8.60;99.90;;;;;;5074910;28;20437;-70
2023/11/11 03:58:47;;;;;;;30.50;27.03;;;8.60;99.90;;;;;;5076229;28;20601;-70
2023/11/11 04:01:16;;;;;;;31.10;27.23;;;8.60;99.90;;;;;;5076336;28;20881;-70
2023/11/11 04:03:44;;;;;;;31.70;28.10;;;8.60;99.90;;;;;;5075185;28;20483;-70
2023/11/11 04:06:13;;;;;;;31.50;27.53;;;8.60;99.90;;;;;;5074655;28;20534;-70
2023/11/11 04:08:43;;;;;;;30.90;26.90;;;8.60;99.90;;;;;;5074663;28;20448;-70
2023/11/11 04:11:11;;;;;;;31.07;27.60;;;8.60;99.90;;;;;;5075939;28;20511;-70
2023/11/11 04:13:40;;;;;;;32.63;28.60;;;8.60;99.90;;;;;;5074613;28;20449;-70
2023/11/11 04:16:09;;;;;;;30.20;25.83;;;8.50;99.90;;;;;;5074569;28;20449;-70
2023/11/11 04:18:38;;;;;;;28.40;25.27;;;8.50;99.90;;;;;;5075827;28;20435;-70
2023/11/11 04:21:06;;;;;;;29.97;26.67;;;8.50;99.90;;;;;;5074475;28;20472;-70
2023/11/11 04:23:35;;;;;;;28.70;25.17;;;8.50;99.90;;;;;;5075782;28;20477;-70
2023/11/11 04:26:05;;;;;;;31.93;25.70;;;8.50;99.90;;;;;;5074347;28;20504;-70
2023/11/11 04:28:34;;;;;;;30.70;25.57;;;8.50;99.90;;;;;;5073655;28;20437;-70
2023/11/11 04:31:02;;;;;;;29.53;25.00;;;8.50;99.90;;;;;;5075464;28;20469;-70
2023/11/11 04:33:30;;;;;;;29.13;24.80;;;8.50;99.90;;;;;;5076204;28;20440;-70
2023/11/11 04:36:00;;;;;;;29.87;25.27;;;8.50;99.90;;;;;;5076046;28;20445;-70
2023/11/11 04:38:29;;;;;;;28.47;24.63;;;8.50;99.90;;;;;;5075444;28;20429;-70
2023/11/11 04:40:58;;;;;;;28.10;25.20;;;8.50;99.90;;;;;;5075317;28;20954;-70
2023/11/11 04:43:27;;;;;;;30.43;25.67;;;8.50;99.90;;;;;;5075637;28;20439;-70
2023/11/11 04:45:55;;;;;;;28.63;24.10;;;8.50;99.90;;;;;;5074309;28;20810;-70
2023/11/11 04:48:23;;;;;;;26.53;23.73;;;8.50;99.90;;;;;;5075315;28;20445;-70
2023/11/11 04:50:52;;;;;;;31.77;24.97;;;8.50;99.90;;;;;;5075357;28;20892;-70
2023/11/11 04:53:20;;;;;;;28.17;24.23;;;8.50;99.90;;;;;;5075482;28;20780;-70
2023/11/11 04:55:48;;;;;;;29.93;23.30;;;8.50;99.90;;;;;;5075365;28;20433;-70
2023/11/11 04:58:17;;;;;;;26.97;22.37;;;8.50;99.90;;;;;;5075349;28;20487;-70
2023/11/11 05:00:47;;;;;;;30.67;25.50;;;8.40;99.90;;;;;;5075307;28;20817;-70
2023/11/11 05:03:16;;;;;;;25.90;22.83;;;8.40;99.90;;;;;;5073729;28;20531;-70
2023/11/11 05:05:45;;;;;;;25.73;22.00;;;8.40;99.90;;;;;;5075037;28;20502;-70
2023/11/11 05:08:13;;;;;;;26.50;22.40;;;8.40;99.90;;;;;;5075025;28;20480;-70
2023/11/11 05:10:42;;;;;;;24.80;21.03;;;8.40;99.90;;;;;;5074721;28;20463;-70
2023/11/11 05:13:10;;;;;;;22.80;20.40;;;8.40;99.90;;;;;;5074731;28;20927;-70
2023/11/11 05:15:45;;;;;;;20.93;18.67;;;8.40;99.90;;;;;;5074716;28;20437;-70
2023/11/11 05:18:15;;;;;;;23.37;20.50;;;8.40;99.90;;;;;;5075039;28;20467;-70
2023/11/11 05:20:43;;;;;;;22.67;20.33;;;8.40;99.90;;;;;;5073288;28;20463;-70
2023/11/11 05:23:11;;;;;;;23.00;18.57;;;8.30;99.90;;;;;;5074834;28;20519;-70
2023/11/11 05:25:39;;;;;;;21.10;18.83;;;8.30;99.90;;;;;;5074497;28;20439;-70
2023/11/11 05:28:08;;;;;;;19.90;17.80;;;8.30;99.90;;;;;;5074343;28;20457;-70
2023/11/11 05:30:36;;;;;;;19.50;16.90;;;8.30;99.90;;;;;;5072932;28;20567;-70
2023/11/11 05:33:05;;;;;;;20.73;16.07;;;8.30;99.90;;;;;;5074305;28;20778;-70
2023/11/11 05:35:35;;;;;;;18.07;16.27;;;8.30;99.90;;;;;;5074297;28;20437;-70
2023/11/11 05:38:04;;;;;;;18.93;16.77;;;8.30;99.90;;;;;;5074735;28;20433;-70
2023/11/11 05:40:32;;;;;;;15.40;13.83;;;8.20;99.90;;;;;;5073739;28;20535;-70
2023/11/11 05:43:02;;;;;;;21.07;14.13;;;8.20;99.90;;;;;;5074113;28;20440;-70
2023/11/11 05:45:30;;;;;;;15.70;13.90;;;8.20;99.90;;;;;;5074052;28;20471;-70
2023/11/11 05:47:58;;;;;;;14.33;12.27;;;8.20;99.90;;;;;;5074237;28;20822;-70
2023/11/11 05:50:26;;;;;;;14.30;12.30;;;8.20;99.90;;;;;;5074613;28;20458;-70
2023/11/11 05:52:55;;;;;;;14.33;12.27;;;8.20;99.90;;;;;;5074000;28;20433;-70
2023/11/11 05:55:24;;;;;;;14.10;12.20;;;8.20;99.90;;;;;;5073964;28;20440;-70
2023/11/11 05:57:52;;;;;;;12.30;10.97;;;8.20;99.90;;;;;;5073782;28;20434;-70
2023/11/11 06:00:21;;;;;;;13.37;11.60;;;8.10;99.90;;;;;;5072890;28;20810;-70
2023/11/11 06:02:49;;;;;;;13.07;10.97;;;8.10;99.90;;;;;;5073777;28;20437;-70
2023/11/11 06:05:17;;;;;;;10.40;9.37;;;8.10;99.90;;;;;;5073694;28;20847;-70
2023/11/11 06:07:45;;;;;;;11.07;9.40;;;8.10;99.90;;;;;;5073867;28;20982;-70
2023/11/11 06:10:17;;;;;;;9.27;8.30;;;8.10;99.90;;;;;;5074227;28;20495;-70
2023/11/11 06:12:47;;;;;;;8.60;7.70;;;8.00;99.90;;;;;;5073884;28;20429;-70
2023/11/11 06:15:16;;;;;;;22.00;8.90;;;8.10;99.90;;;;;;5072425;28;20450;-70
2023/11/11 06:17:44;;;;;;;8.80;7.60;;;8.00;99.90;;;;;;5072535;28;20453;-70
2023/11/11 06:20:13;;;;;;;11.50;7.97;;;8.00;99.90;;;;;;5074166;28;20462;-70
2023/11/11 06:22:42;;;;;;;9.20;7.43;;;8.00;99.90;;;;;;5073809;28;20535;-70
2023/11/11 06:25:10;;;;;;;7.80;6.93;;;8.00;99.90;;;;;;5073556;28;20485;-70
2023/11/11 06:27:40;;;;;;;8.30;6.40;;;8.00;99.90;;;;;;5073452;28;20974;-70
2023/11/11 06:30:09;;;;;;;13.33;7.30;;;8.00;99.90;;;;;;5073698;28;20873;-70
2023/11/11 06:32:38;;;;;;;7.20;6.13;;;7.90;99.90;;;;;;5073759;28;20428;-70
2023/11/11 06:35:08;;;;;;;6.37;5.77;;;7.90;99.90;;;;;;5073649;28;20437;-70
2023/11/11 06:37:36;;;;;;;10.57;6.27;;;7.90;99.90;;;;;;5073322;28;20972;-70
2023/11/11 06:40:05;;;;;;;8.83;5.80;;;7.90;99.90;;;;;;5073270;28;20468;-70
2023/11/11 06:42:33;;;;;;;6.33;5.17;;;7.90;99.90;;;;;;5073268;28;20446;-70
2023/11/11 06:45:03;;;;;;;7.60;5.00;;;7.90;99.90;;;;;;5073263;28;20472;-70
2023/11/11 06:47:31;;;;;;;8.73;5.10;;;7.90;99.90;;;;;;5073191;28;20976;-70
2023/11/11 06:49:59;;;;;;;10.23;4.63;;;7.80;99.90;;;;;;5071799;28;20514;-70
2023/11/11 06:52:27;;;;;;;7.50;4.13;;;7.80;99.90;;;;;;5072943;28;20441;-70
2023/11/11 06:54:55;;;;;;;5.40;4.90;;;7.80;99.90;;;;;;5073100;28;20523;-70
2023/11/11 06:57:23;;;;;;;4.90;4.17;;;7.80;99.90;;;;;;5073124;28;20441;-70
2023/11/11 06:59:52;;;;;;;5.73;4.47;;;7.80;99.90;;;;;;5073365;28;20806;-70
2023/11/11 07:02:22;;;;;;;6.93;4.23;;;7.80;99.90;;;;;;5073044;28;20494;-70
2023/11/11 07:04:53;;;;;;;4.27;3.70;;;7.80;99.90;;;;;;5073322;28;20436;-70
2023/11/11 07:07:22;;;;;;;4.80;4.07;;;7.80;99.90;;;;;;5072167;28;20473;-70
2023/11/11 07:09:52;;;;;;;5.60;4.50;;;7.70;99.90;;;;;;5073242;28;20518;-70
2023/11/11 07:12:22;;;;;;;8.17;4.40;;;7.70;99.90;;;;;;5074471;28;20440;-70
2023/11/11 07:14:50;;;;;;;7.00;4.47;;;7.70;99.90;;;;;;5073697;28;20884;-70
2023/11/11 07:17:20;;;;;;;6.10;4.27;;;7.70;99.90;;;;;;5073446;28;20433;-70
2023/11/11 07:19:49;;;;;;;5.93;3.90;;;7.70;99.90;;;;;;5073270;28;20482;-70
2023/11/11 07:22:18;;;;;;;6.00;4.13;;;7.70;99.90;;;;;;5073282;28;20449;-70
2023/11/11 07:24:49;;;;;;;4.53;3.57;;;7.70;99.90;;;;;;5073947;28;20474;-70
2023/11/11 07:27:18;;;;;;;5.00;3.53;;;7.70;99.90;;;;;;5072671;28;20444;-70
2023/11/11 07:29:46;;;;;;;5.50;3.57;;;7.70;99.90;;;;;;5073414;28;20475;-70
2023/11/11 07:32:14;;;;;;;4.57;3.30;;;7.60;99.90;;;;;;5074077;28;20775;-70
2023/11/11 07:34:43;;;;;;;4.13;3.20;;;7.60;99.90;;;;;;5073561;28;20497;-70
2023/11/11 07:37:14;;;;;;;5.77;2.80;;;7.60;99.90;;;;;;5073918;28;20435;-70
2023/11/11 07:39:43;;;;;;;6.10;3.20;;;7.60;99.90;;;;;;5073817;28;20961;-70
2023/11/11 07:42:11;;;;;;;3.67;3.00;;;7.70;99.90;;;;;;5073279;28;20442;-70
2023/11/11 07:44:39;;;;;;;3.90;2.30;;;7.60;99.90;;;;;;5072107;28;20969;-70
2023/11/11 07:47:10;;;;;;;4.57;2.53;;;7.60;99.90;;;;;;5073709;28;20465;-70
2023/11/11 07:49:39;;;;;;;3.17;2.50;;;7.60;99.90;;;;;;5073816;28;20557;-70
2023/11/11 07:52:08;;;;;;;3.40;2.90;;;7.60;99.90;;;;;;5072258;28;20946;-70
2023/11/11 07:54:38;;;;;;;2.67;1.90;;;7.60;99.90;;;;;;5073285;28;20542;-69
2023/11/11 07:57:07;;;;;;;5.20;2.00;;;7.60;99.90;;;;;;5073106;28;20429;-70
2023/11/11 07:59:38;;;;;;;3.37;1.87;;;7.60;99.90;;;;;;5073114;28;20970;-70
2023/11/11 08:02:07;;;;;;;2.53;1.90;;;7.60;99.90;;;;;;5072240;28;20448;-70
2023/11/11 08:04:35;;;;;;;2.43;1.50;;;7.60;99.90;;;;;;5075320;28;20955;-70
2023/11/11 08:07:03;;;;;;;4.70;1.90;;;7.70;99.90;;;;;;5077130;28;20440;-70
2023/11/11 08:09:32;;;;;;;2.93;1.90;;;7.70;99.90;;;;;;5076661;28;20484;-70
2023/11/11 08:12:03;;;;;;;2.97;1.57;;;7.70;99.90;;;;;;5078049;28;20811;-70
2023/11/11 08:14:31;;;;;;;2.10;1.40;;;7.70;99.90;;;;;;5076094;28;20525;-70
2023/11/11 08:16:59;;;;;;;3.80;2.13;;;7.70;99.90;;;;;;5075607;28;20443;-70
2023/11/11 08:19:28;;;;;;;4.00;1.60;;;7.70;99.90;;;;;;5066958;22;20493;-69
2023/11/11 08:21:56;;;;;;;2.60;1.63;;;7.70;99.90;;;;;;5035367;28;20461;-70
2023/11/11 08:24:24;;;;;;;2.40;1.43;;;7.80;99.90;;;;;;5035447;28;20439;-70
2023/11/11 08:26:52;;;;;;;2.60;1.47;;;7.80;99.90;;;;;;5036560;28;20465;-70
2023/11/11 08:29:25;;;;;;;2.17;1.50;;;7.80;99.90;;;;;;5036594;28;20503;-70
2023/11/11 08:31:53;;;;;;;3.37;1.47;;;7.80;99.90;;;;;;5036800;28;20512;-70
2023/11/11 08:34:28;;;;;;;3.03;1.40;;;7.80;99.90;;;;;;5035534;28;20533;-69
2023/11/11 08:36:56;;;;;;;2.57;1.10;;;7.80;99.90;;;;;;5037443;28;20425;-69
2023/11/11 08:39:25;;;;;;;2.20;1.30;;;7.90;99.90;;;;;;5037170;28;20450;-69
2023/11/11 08:41:54;;;;;;;4.43;1.40;;;7.90;99.90;;;;;;5037183;28;20480;-69
2023/11/11 08:44:23;;;;;;;2.63;1.20;;;7.90;99.90;;;;;;5036063;28;20447;-69
2023/11/11 08:46:51;;;;;;;3.10;1.13;;;7.90;99.90;;;;;;5035648;28;20994;-70
2023/11/11 08:49:19;;;;;;;1.70;1.07;;;8.00;99.90;;;;;;5035353;28;20478;-69
2023/11/11 08:51:48;;;;;;;2.20;1.27;;;8.00;99.90;;;;;;5035321;28;20801;-69
2023/11/11 08:54:16;;;;;;;2.80;1.53;;;8.10;99.90;;;;;;5035249;28;20442;-70
2023/11/11 08:56:44;;;;;;;2.57;1.50;;;8.10;99.90;;;;;;5036271;28;20437;-70
2023/11/11 08:59:14;;;;;;;2.33;1.50;;;8.10;99.90;;;;;;5034826;28;20446;-70
2023/11/11 09:01:44;;;;;;;2.63;1.63;;;8.20;99.90;;;;;;5035636;28;20458;-70
2023/11/11 09:04:12;;;;;;;2.67;1.20;;;8.20;99.90;;;;;;5033925;28;20447;-70
2023/11/11 09:06:41;;;;;;;2.37;1.00;;;8.20;99.90;;;;;;5035334;28;20474;-70
2023/11/11 09:09:14;;;;;;;1.63;1.10;;;8.30;99.90;;;;;;5035012;28;20472;-70
2023/11/11 09:11:46;;;;;;;2.47;1.43;;;8.30;99.90;;;;;;5035268;28;20443;-70
2023/11/11 09:14:15;;;;;;;3.90;1.13;;;8.30;99.90;;;;;;5034694;28;20536;-70
2023/11/11 09:16:44;;;;;;;2.57;1.00;;;8.40;99.90;;;;;;5033612;28;20955;-70
2023/11/11 09:19:12;;;;;;;1.93;1.00;;;8.40;99.90;;;;;;5034853;28;20812;-70
2023/11/11 09:21:41;;;;;;;2.80;1.10;;;8.50;99.90;;;;;;5035147;28;20442;-70
2023/11/11 09:24:09;;;;;;;4.93;1.23;;;8.50;99.90;;;;;;5034967;28;20437;-70
2023/11/11 09:26:37;;;;;;;3.80;1.00;;;8.50;99.90;;;;;;5034646;28;20449;-71
2023/11/11 09:29:25;;;;;;;1.77;1.07;;;8.50;99.90;;;;;;5034768;28;20486;-71
2023/11/11 09:31:55;;;;;;;3.13;1.17;;;8.50;99.90;;;;;;5034570;28;20430;-71
2023/11/11 09:34:23;;;;;;;2.63;0.90;;;8.50;99.90;;;;;;5034487;28;20443;-71
2023/11/11 09:36:52;;;;;;;3.63;1.10;;;8.50;99.90;;;;;;5034434;28;20960;-71
2023/11/11 09:39:21;;;;;;;1.43;0.93;;;8.50;99.90;;;;;;5033074;28;20557;-71
2023/11/11 09:41:49;;;;;;;2.30;1.20;;;8.40;99.90;;;;;;5034697;28;20529;-72
2023/11/11 09:44:18;;;;;;;1.80;1.00;;;8.40;99.90;;;;;;5033087;28;20447;-72
2023/11/11 09:46:55;;;;;;;1.73;1.23;;;8.50;99.90;;;;;;5034597;28;20426;-71
2023/11/11 09:49:27;;;;;;;1.73;1.13;;;8.40;99.90;;;;;;5034451;28;20462;-71
2023/11/11 09:51:57;;;;;;;1.80;1.20;;;8.40;99.90;;;;;;5034573;28;20415;-72
2023/11/11 09:54:27;;;;;;;2.63;1.30;;;8.40;99.90;;;;;;5032977;28;21035;-72
2023/11/11 09:56:57;;;;;;;2.30;1.50;;;8.40;99.90;;;;;;5032887;28;20439;-72
2023/11/11 09:59:30;;;;;;;2.03;1.30;;;8.40;99.90;;;;;;5032799;28;20462;-72
2023/11/11 10:02:01;;;;;;;2.53;1.47;;;8.40;99.90;;;;;;5034018;28;20439;-72
2023/11/11 10:04:30;;;;;;;4.60;2.20;;;8.40;99.90;;;;;;5032779;28;20546;-72
2023/11/11 10:06:58;;;;;;;2.23;1.47;;;8.40;99.90;;;;;;5032732;28;20447;-72
2023/11/11 10:09:26;;;;;;;1.70;0.97;;;8.40;99.90;;;;;;5032493;28;20532;-72
2023/11/11 10:11:55;;;;;;;1.60;0.90;;;8.40;99.90;;;;;;5033825;28;20534;-72
2023/11/11 10:14:26;;;;;;;1.70;0.80;;;8.40;99.90;;;;;;5033870;28;21012;-72
2023/11/11 10:16:58;;;;;;;10.93;1.60;;;8.50;99.90;;;;;;5033799;28;20435;-72
2023/11/11 10:19:29;;;;;;;2.27;1.40;;;8.50;99.90;;;;;;5032282;28;20475;-72
2023/11/11 10:21:57;;;;;;;2.40;1.20;;;8.50;99.90;;;;;;5032324;28;20978;-72
2023/11/11 10:24:26;;;;;;;2.00;1.40;;;8.50;99.90;;;;;;5033649;28;20438;-72
2023/11/11 10:26:54;;;;;;;2.03;1.00;;;8.50;99.90;;;;;;5032891;28;20478;-72
2023/11/11 10:29:22;;;;;;;1.90;1.07;;;8.60;99.90;;;;;;5033420;28;20465;-72
2023/11/11 10:31:51;;;;;;;1.70;0.83;;;8.60;99.90;;;;;;5033514;28;20517;-72
2023/11/11 10:34:20;;;;;;;2.23;0.97;;;8.60;99.90;;;;;;5033499;28;20971;-72
2023/11/11 10:36:49;;;;;;;2.30;0.90;;;8.50;99.90;;;;;;5032311;28;20443;-71
2023/11/11 10:39:18;;;;;;;1.70;1.00;;;8.50;99.90;;;;;;5032285;28;20459;-71
2023/11/11 10:41:46;;;;;;;1.30;0.70;;;8.50;99.90;;;;;;5033741;28;20936;-71
2023/11/11 10:44:14;;;;;;;1.10;0.57;;;8.50;99.90;;;;;;5032200;28;20812;-72
2023/11/11 10:46:43;;;;;;;1.27;0.50;;;8.50;99.90;;;;;;5033314;28;20467;-72
2023/11/11 10:49:12;;;;;;;1.40;0.60;;;8.50;99.90;;;;;;5033208;28;20443;-72
2023/11/11 10:51:42;;;;;;;1.43;0.63;;;8.50;99.90;;;;;;5032064;28;20470;-72
2023/11/11 10:54:13;;;;;;;1.10;0.50;;;8.50;99.90;;;;;;5032088;28;20525;-72
2023/11/11 10:56:43;;;;;;;1.40;0.50;;;8.50;99.90;;;;;;5031995;28;20433;-73
2023/11/11 10:59:11;;;;;;;1.20;0.60;;;8.50;99.90;;;;;;5033168;28;20435;-73
2023/11/11 11:01:41;;;;;;;1.63;0.60;;;8.50;99.90;;;;;;5033998;28;20431;-72
2023/11/11 11:04:10;;;;;;;1.87;1.07;;;8.40;99.90;;;;;;5033233;28;20435;-72
2023/11/11 11:06:44;;;;;;;1.40;1.13;;;8.40;99.90;;;;;;5033107;28;20439;-72
2023/11/11 11:09:27;;;;;;;1.60;1.17;;;8.40;99.90;;;;;;5031879;28;20526;-72
2023/11/11 11:12:07;;;;;;;2.47;1.57;;;8.40;99.90;;;;;;5033447;28;20419;-73
2023/11/11 11:14:45;;;;;;;2.30;1.70;;;8.40;99.90;;;;;;5033237;28;20470;-72
2023/11/11 11:17:15;;;;;;;1.70;1.60;;;8.40;99.90;;;;;;5033091;28;20426;-72
2023/11/11 11:19:55;;;;;;;2.00;1.60;;;8.40;99.90;;;;;;5032830;28;20540;-72
2023/11/11 11:22:34;;;;;;;2.20;2.00;;;8.40;99.90;;;;;;5033242;28;20434;-72
2023/11/11 11:25:36;;;;;;;3.07;2.47;;;8.40;99.90;;;;;;5033274;28;20479;-73
2023/11/11 11:28:22;;;;;;;3.23;2.50;;;8.40;99.90;;;;;;5032996;28;20442;-72
2023/11/11 11:30:54;;;;;;;3.30;2.63;;;8.40;99.90;;;;;;5032824;28;20489;-71
2023/11/11 11:33:25;;;;;;;3.20;2.40;;;8.50;99.90;;;;;;5033294;28;20420;-72
2023/11/11 11:35:56;;;;;;;3.93;2.73;;;8.40;99.90;;;;;;5033334;28;20419;-71
2023/11/11 11:38:29;;;;;;;2.60;2.40;;;8.40;99.90;;;;;;5036295;28;20419;-68
2023/11/11 11:41:03;;;;;;;3.20;2.90;;;8.40;99.90;;;;;;5036737;28;20454;-73
2023/11/11 11:43:34;;;;;;;3.60;3.30;;;8.40;99.90;;;;;;5035343;28;20446;-72
2023/11/11 11:46:04;;;;;;;2.27;2.07;;;8.40;99.90;;;;;;5036888;28;20423;-72
2023/11/11 11:48:34;;;;;;;3.00;2.70;;;8.40;99.90;;;;;;5036681;28;20954;-72
2023/11/11 11:51:20;;;;;;;3.63;3.17;;;8.40;99.90;;;;;;5036444;28;20473;-73
2023/11/11 11:53:53;;;;;;;1.90;1.70;;;8.40;99.90;;;;;;5037189;28;20773;-72
2023/11/11 11:56:30;;;;;;;2.20;1.63;;;8.40;99.90;;;;;;5036780;28;20832;-73
2023/11/11 11:59:01;;;;;;;2.40;2.00;;;8.40;99.90;;;;;;5036604;28;20880;-73
2023/11/11 12:01:31;;;;;;;1.97;1.67;;;8.40;99.90;;;;;;5036580;28;20515;-73
2023/11/11 12:04:01;;;;;;;2.80;1.77;;;8.30;99.90;;;;;;5036574;28;20439;-73
2023/11/11 12:06:29;;;;;;;3.50;2.47;;;8.30;99.90;;;;;;5036291;28;20518;-73
2023/11/11 12:08:59;;;;;;;2.33;2.10;;;8.30;99.90;;;;;;5036455;28;20439;-73
2023/11/11 12:11:32;;;;;;;2.00;1.50;;;8.30;99.90;;;;;;5036301;28;20476;-73
2023/11/11 12:14:04;;;;;;;2.23;1.00;;;8.30;99.90;;;;;;5035270;28;20434;-73
2023/11/11 12:16:39;;;;;;;2.60;1.43;;;8.30;99.90;;;;;;5036170;28;20427;-73
2023/11/11 12:19:12;;;;;;;2.67;1.37;;;8.30;99.90;;;;;;5034521;28;20460;-73
2023/11/11 12:21:44;;;;;;;2.30;1.50;;;8.20;99.90;;;;;;5036069;28;20453;-73
2023/11/11 12:24:15;;;;;;;1.70;1.40;;;8.20;99.90;;;;;;5034614;28;20443;-73
2023/11/11 12:26:47;;;;;;;3.60;3.00;;;8.20;99.90;;;;;;5035791;28;20443;-73
2023/11/11 12:29:16;;;;;;;5.07;3.47;;;8.20;99.90;;;;;;5034475;28;20924;-73
2023/11/11 12:31:45;;;;;;;6.37;3.60;;;8.20;99.90;;;;;;5035586;28;21003;-73
2023/11/11 12:34:15;;;;;;;2.57;2.03;;;8.20;99.90;;;;;;5034377;28;20439;-73
2023/11/11 12:36:44;;;;;;;2.77;2.27;;;8.20;99.90;;;;;;5034398;28;20868;-73
2023/11/11 12:39:14;;;;;;;2.77;1.70;;;8.20;99.90;;;;;;5035490;28;20530;-73
2023/11/11 12:41:50;;;;;;;2.13;1.90;;;8.20;99.90;;;;;;5035565;28;21002;-73
2023/11/11 12:44:19;;;;;;;2.30;2.03;;;8.20;99.90;;;;;;5035776;28;20427;-73
2023/11/11 12:46:49;;;;;;;4.57;3.17;;;8.20;99.90;;;;;;5035418;28;20601;-73
2023/11/11 12:49:20;;;;;;;4.00;2.60;;;8.20;99.90;;;;;;5034652;28;20529;-73
2023/11/11 12:51:50;;;;;;;3.97;3.57;;;8.20;99.90;;;;;;5034055;28;20566;-73
2023/11/11 12:54:31;;;;;;;4.13;3.43;;;8.20;99.90;;;;;;5035407;28;20423;-74
2023/11/11 12:57:01;;;;;;;3.97;3.50;;;8.20;99.90;;;;;;5035362;28;20431;-73
2023/11/11 12:59:29;;;;;;;4.20;3.20;;;8.10;99.90;;;;;;5035146;28;20987;-73